Time;durP1;ratioP1;P1;durP2;ratioP2;P2;SDS_P1;SDS_P2;PMS_P1;PMS_P2;Temp;Humidity;BMP_temperature;BMP_pressure;BME280_temperature;BME280_humidity;BME280_pressure;Samples;Min_cycle;Max_cycle;Signal;HPM_P1;HPM_P2
2023/05/23 00:01:23;;;;;;;;;;;;;;;19.40;66.09;96818.44;598131;237;61818;-62
2023/05/23 00:03:54;;;;;;;;;;;;;;;19.40;66.08;96813.11;598145;237;68968;-62
2023/05/23 00:06:23;;;;;;;;;;;;;;;19.41;66.11;96821.90;598127;237;66980;-62
2023/05/23 00:08:50;;;;;;;;;;;;;;;19.40;66.03;96813.11;598148;237;62947;-62
2023/05/23 00:11:19;;;;;;;;;;;;;;;19.40;66.02;96817.64;598149;237;68826;-62
2023/05/23 00:13:46;;;;;;;;;;;;;;;19.40;66.13;96815.77;598150;237;68696;-61
2023/05/23 00:16:15;;;;;;;;;;;;;;;19.40;65.95;96813.11;598165;237;65028;-60
2023/05/23 00:18:44;;;;;;;;;;;;;;;19.40;66.00;96812.31;598204;237;66684;-60
2023/05/23 00:21:17;;;;;;;;;;;;;;;19.40;65.98;96807.78;598188;237;66572;-61
2023/05/23 00:23:44;;;;;;;;;;;;;;;19.40;65.97;96807.78;598041;237;62841;-61
2023/05/23 00:26:11;;;;;;;;;;;;;;;19.40;66.11;96802.45;598107;237;70760;-61
2023/05/23 00:28:39;;;;;;;;;;;;;;;19.39;65.99;96800.03;598139;237;69325;-61
2023/05/23 00:31:07;;;;;;;;;;;;;;;19.41;65.93;96800.58;598131;237;62659;-61
2023/05/23 00:33:35;;;;;;;;;;;;;;;19.40;65.98;96802.45;598194;237;68705;-61
2023/05/23 00:36:02;;;;;;;;;;;;;;;19.40;66.01;96804.32;598161;237;67376;-61
2023/05/23 00:38:30;;;;;;;;;;;;;;;19.40;65.86;96801.66;598178;237;65110;-61
2023/05/23 00:40:57;;;;;;;;;;;;;;;19.40;65.92;96796.33;598104;237;68757;-61
2023/05/23 00:43:25;;;;;;;;;;;;;;;19.40;65.90;96791.00;598152;237;69297;-61
2023/05/23 00:45:52;;;;;;;;;;;;;;;19.41;65.83;96797.91;598197;237;63070;-61
2023/05/23 00:48:20;;;;;;;;;;;;;;;19.41;65.79;96797.91;598151;237;65981;-61
2023/05/23 00:50:47;;;;;;;;;;;;;;;19.40;65.93;96796.33;598169;237;66380;-61
2023/05/23 00:53:16;;;;;;;;;;;;;;;19.40;65.82;96801.66;598147;237;63093;-61
2023/05/23 00:55:44;;;;;;;;;;;;;;;19.41;65.92;96803.24;598106;237;68474;-61
2023/05/23 00:58:13;;;;;;;;;;;;;;;19.40;65.83;96796.33;598176;237;68476;-61
2023/05/23 01:00:41;;;;;;;;;;;;;;;19.40;65.77;96794.45;598135;237;65091;-62
2023/05/23 01:03:17;;;;;;;;;;;;;;;19.40;65.93;96796.33;598122;237;68385;-61
2023/05/23 01:05:40;;;;;;;;;;;;;;;19.40;65.81;96789.12;598022;237;68303;-61
2023/05/23 01:08:07;;;;;;;;;;;;;;;19.39;65.86;96784.84;598125;237;65030;-61
2023/05/23 01:10:35;;;;;;;;;;;;;;;19.40;65.87;96793.66;598164;237;69280;-61
2023/05/23 01:13:13;;;;;;;;;;;;;;;19.39;65.87;96786.71;598185;237;66230;-61
2023/05/23 01:15:55;;;;;;;;;;;;;;;19.40;65.90;96788.33;597830;237;64980;-61
2023/05/23 01:18:37;;;;;;;;;;;;;;;19.39;65.92;96789.38;597695;237;66589;-61
2023/05/23 01:21:09;;;;;;;;;;;;;;;19.40;65.99;96785.66;598040;237;67013;-62
2023/05/23 01:23:41;;;;;;;;;;;;;;;19.39;65.94;96792.83;597808;237;62944;-61
2023/05/23 01:26:26;;;;;;;;;;;;;;;19.38;65.87;96788.58;598049;237;68801;-60
2023/05/23 01:28:55;;;;;;;;;;;;;;;19.38;65.95;96782.46;598117;237;66654;-60
2023/05/23 01:31:24;;;;;;;;;;;;;;;19.38;65.86;96788.58;598175;237;64970;-60
2023/05/23 01:33:53;;;;;;;;;;;;;;;19.39;65.86;96789.38;598111;237;68713;-60
2023/05/23 01:36:21;;;;;;;;;;;;;;;19.39;65.79;96789.38;598096;237;68679;-59
2023/05/23 01:38:48;;;;;;;;;;;;;;;19.38;65.87;96783.25;598146;237;64928;-60
2023/05/23 01:41:16;;;;;;;;;;;;;;;19.39;65.80;96784.05;598098;237;68484;-60
2023/05/23 01:43:43;;;;;;;;;;;;;;;19.38;65.82;96785.13;598151;237;68561;-60
2023/05/23 01:46:11;;;;;;;;;;;;;;;19.38;65.88;96785.13;598092;237;65156;-60
2023/05/23 01:48:39;;;;;;;;;;;;;;;19.39;65.87;96781.38;598101;237;69031;-60
2023/05/23 01:51:07;;;;;;;;;;;;;;;19.38;65.96;96783.25;598119;237;68516;-60
2023/05/23 01:53:35;;;;;;;;;;;;;;;19.38;66.02;96783.25;598093;237;62976;-60
2023/05/23 01:56:03;;;;;;;;;;;;;;;19.39;65.96;96784.05;598137;237;69721;-60
2023/05/23 01:58:31;;;;;;;;;;;;;;;19.38;66.02;96777.13;598115;237;68626;-60
2023/05/23 02:00:59;;;;;;;;;;;;;;;19.38;65.89;96787.79;598089;237;62936;-60
2023/05/23 02:03:26;;;;;;;;;;;;;;;19.38;65.93;96777.92;598143;237;68827;-60
2023/05/23 02:05:54;;;;;;;;;;;;;;;19.39;65.90;96789.38;598109;237;66188;-60
2023/05/23 02:08:22;;;;;;;;;;;;;;;19.39;65.87;96789.38;598128;237;62731;-60
2023/05/23 02:10:49;;;;;;;;;;;;;;;19.39;65.85;96800.83;598082;237;69530;-61
2023/05/23 02:13:17;;;;;;;;;;;;;;;19.39;65.83;96792.04;598101;237;66704;-60
2023/05/23 02:15:45;;;;;;;;;;;;;;;19.38;65.83;96791.25;598119;237;65206;-60
2023/05/23 02:18:12;;;;;;;;;;;;;;;19.38;65.80;96798.45;598104;237;69572;-61
2023/05/23 02:20:41;;;;;;;;;;;;;;;19.38;65.78;96793.12;598119;234;45550;-62
2023/05/23 02:23:09;;;;;;;;;;;;;;;19.39;65.71;96797.38;598098;237;63946;-61
2023/05/23 02:25:37;;;;;;;;;;;;;;;19.38;65.74;96793.12;598106;237;69212;-60
2023/05/23 02:28:06;;;;;;;;;;;;;;;19.38;65.71;96782.46;598137;237;68560;-62
2023/05/23 02:30:34;;;;;;;;;;;;;;;19.37;65.78;96786.17;598105;237;65074;-60
2023/05/23 02:33:03;;;;;;;;;;;;;;;19.38;65.68;96796.58;598103;237;69463;-61
2023/05/23 02:35:30;;;;;;;;;;;;;;;19.38;65.72;96793.12;598078;237;69674;-60
2023/05/23 02:37:58;;;;;;;;;;;;;;;19.38;65.71;96791.25;598110;237;62923;-60
2023/05/23 02:40:26;;;;;;;;;;;;;;;19.38;65.84;96790.45;598124;237;66153;-60
2023/05/23 02:42:56;;;;;;;;;;;;;;;19.39;65.76;96792.04;598112;237;67193;-60
2023/05/23 02:45:23;;;;;;;;;;;;;;;19.38;65.72;96787.79;598107;237;63479;-60
2023/05/23 02:47:51;;;;;;;;;;;;;;;19.39;65.76;96789.38;598135;237;68872;-60
2023/05/23 02:50:19;;;;;;;;;;;;;;;19.38;65.80;96785.92;598093;237;66494;-60
2023/05/23 02:52:46;;;;;;;;;;;;;;;19.38;65.76;96793.12;598186;237;65124;-61
2023/05/23 02:55:14;;;;;;;;;;;;;;;19.38;65.74;96788.58;598136;237;68231;-61
2023/05/23 02:57:43;;;;;;;;;;;;;;;19.38;65.69;96787.79;598184;234;46284;-61
2023/05/23 03:00:12;;;;;;;;;;;;;;;19.39;65.60;96792.04;598127;237;62667;-61
2023/05/23 03:02:40;;;;;;;;;;;;;;;19.37;65.59;96800.31;598130;237;66808;-61
2023/05/23 03:05:08;;;;;;;;;;;;;;;19.37;65.61;96797.66;598159;237;68707;-61
2023/05/23 03:07:35;;;;;;;;;;;;;;;19.38;65.65;96795.78;598153;237;62983;-61
2023/05/23 03:10:03;;;;;;;;;;;;;;;19.37;65.62;96794.16;598151;237;67478;-61
2023/05/23 03:12:30;;;;;;;;;;;;;;;19.38;65.59;96803.78;598141;237;66483;-61
2023/05/23 03:14:58;;;;;;;;;;;;;;;19.38;65.59;96803.78;598126;237;62954;-61
2023/05/23 03:17:25;;;;;;;;;;;;;;;19.37;65.75;96800.31;598192;237;67207;-62
2023/05/23 03:19:53;;;;;;;;;;;;;;;19.37;65.71;96802.16;598053;237;66495;-61
2023/05/23 03:22:20;;;;;;;;;;;;;;;19.37;65.65;96802.16;598144;237;62898;-61
2023/05/23 03:24:48;;;;;;;;;;;;;;;19.37;65.65;96799.49;598107;237;68587;-61
2023/05/23 03:27:15;;;;;;;;;;;;;;;19.38;65.62;96801.11;598138;237;66422;-61
2023/05/23 03:29:43;;;;;;;;;;;;;;;19.38;65.67;96809.11;598134;237;62697;-61
2023/05/23 03:32:10;;;;;;;;;;;;;;;19.37;65.70;96807.48;598124;237;68769;-61
2023/05/23 03:34:38;;;;;;;;;;;;;;;19.37;65.59;96796.83;598154;237;66385;-61
2023/05/23 03:37:05;;;;;;;;;;;;;;;19.38;65.56;96803.78;598148;237;65019;-61
2023/05/23 03:39:33;;;;;;;;;;;;;;;19.38;65.61;96798.45;598160;237;68838;-61
2023/05/23 03:42:01;;;;;;;;;;;;;;;19.38;65.60;96809.90;598143;237;68450;-61
2023/05/23 03:44:28;;;;;;;;;;;;;;;19.37;65.54;96804.83;598142;237;65710;-61
2023/05/23 03:46:56;;;;;;;;;;;;;;;19.38;65.56;96801.11;598155;237;66651;-61
2023/05/23 03:49:26;;;;;;;;;;;;;;;19.37;65.51;96808.31;598107;237;66959;-61
2023/05/23 03:51:53;;;;;;;;;;;;;;;19.38;65.49;96814.44;598138;237;63629;-62
2023/05/23 03:54:21;;;;;;;;;;;;;;;19.37;65.55;96813.64;598136;237;69258;-61
2023/05/23 03:56:48;;;;;;;;;;;;;;;19.36;65.59;96806.69;598095;237;66372;-61
2023/05/23 03:59:16;;;;;;;;;;;;;;;19.37;65.56;96812.81;598151;237;63781;-61
2023/05/23 04:01:44;;;;;;;;;;;;;;;19.36;65.56;96808.56;598131;237;68653;-61
2023/05/23 04:04:12;;;;;;;;;;;;;;;19.37;65.64;96812.81;598159;237;66786;-61
2023/05/23 04:06:40;;;;;;;;;;;;;;;19.37;65.56;96818.14;598155;237;66210;-61
2023/05/23 04:09:09;;;;;;;;;;;;;;;19.37;65.59;96823.47;598064;237;68404;-61
2023/05/23 04:11:38;;;;;;;;;;;;;;;19.36;65.58;96816.55;598149;237;46022;-61
2023/05/23 04:14:06;;;;;;;;;;;;;;;19.36;65.56;96817.35;598135;237;65091;-61
2023/05/23 04:16:34;;;;;;;;;;;;;;;19.36;65.60;96822.68;598127;237;66640;-61
2023/05/23 04:19:03;;;;;;;;;;;;;;;19.37;65.58;96820.81;598111;237;68637;-61
2023/05/23 04:21:31;;;;;;;;;;;;;;;19.36;65.46;96822.68;599631;236;62787;-61
2023/05/23 04:24:07;;;;;;;;;;;;;;;19.37;65.47;96834.13;599779;236;51377;-61
2023/05/23 04:26:39;;;;;;;;;;;;;;;19.37;65.52;96828.80;594691;236;67540;-61
2023/05/23 04:29:06;;;;;;;;;;;;;;;19.36;65.54;96822.68;599799;236;65183;-61
2023/05/23 04:31:34;;;;;;;;;;;;;;;19.36;65.70;96827.22;599899;236;68733;-61
2023/05/23 04:34:02;;;;;;;;;;;;;;;19.36;65.83;96827.22;599909;236;69286;-61
2023/05/23 04:36:32;;;;;;;;;;;;;;;19.37;65.86;96828.80;599934;236;44751;-61
2023/05/23 04:38:59;;;;;;;;;;;;;;;19.36;65.81;96833.34;599881;236;68813;-61
2023/05/23 04:41:28;;;;;;;;;;;;;;;19.36;66.02;96832.55;594636;236;70040;-61
2023/05/23 04:44:13;;;;;;;;;;;;;;;19.37;65.81;96828.80;599558;236;45180;-61
2023/05/23 04:46:44;;;;;;;;;;;;;;;19.36;65.58;96832.55;599718;236;45953;-61
2023/05/23 04:49:21;;;;;;;;;;;;;;;19.36;65.59;96821.89;599725;236;48450;-61
2023/05/23 04:51:49;;;;;;;;;;;;;;;19.35;65.58;96825.63;599883;236;63192;-61
2023/05/23 04:54:30;;;;;;;;;;;;;;;19.36;65.50;96832.55;599917;236;68444;-61
2023/05/23 04:56:59;;;;;;;;;;;;;;;19.36;65.46;96827.22;599882;236;68862;-61
2023/05/23 04:59:28;;;;;;;;;;;;;;;19.36;65.45;96837.87;599920;236;65712;-61
2023/05/23 05:01:55;;;;;;;;;;;;;;;19.35;65.55;96836.28;599783;236;68995;-62
2023/05/23 05:04:23;;;;;;;;;;;;;;;19.35;65.54;96826.42;599819;236;68760;-61
2023/05/23 05:06:51;;;;;;;;;;;;;;;19.35;65.63;96826.42;599905;236;65204;-60
2023/05/23 05:09:20;;;;;;;;;;;;;;;19.36;65.65;96828.02;599888;236;69059;-60
2023/05/23 05:11:48;;;;;;;;;;;;;;;19.35;65.60;96825.63;593935;236;67870;-60
2023/05/23 05:14:16;;;;;;;;;;;;;;;19.35;65.60;96825.63;599901;236;65075;-60
2023/05/23 05:16:44;;;;;;;;;;;;;;;19.35;65.64;96825.63;599949;236;69252;-60
2023/05/23 05:19:12;;;;;;;;;;;;;;;19.35;65.56;96826.42;599886;236;68722;-60
2023/05/23 05:21:40;;;;;;;;;;;;;;;19.35;65.64;96814.97;598293;236;64966;-60
2023/05/23 05:24:12;;;;;;;;;;;;;;;19.35;65.60;96823.76;598093;237;66016;-61
2023/05/23 05:26:37;;;;;;;;;;;;;;;19.36;65.58;96835.21;597949;237;66674;-62
2023/05/23 05:29:05;;;;;;;;;;;;;;;19.36;65.52;96827.22;598143;237;65721;-62
2023/05/23 05:31:34;;;;;;;;;;;;;;;19.35;65.53;96834.42;598106;237;68969;-61
2023/05/23 05:34:02;;;;;;;;;;;;;;;19.35;65.50;96826.42;597998;237;68412;-60
2023/05/23 05:36:30;;;;;;;;;;;;;;;19.36;65.54;96827.22;598127;237;62654;-60
2023/05/23 05:38:58;;;;;;;;;;;;;;;19.36;65.50;96827.22;598132;237;66303;-60
2023/05/23 05:41:26;;;;;;;;;;;;;;;19.35;65.58;96826.42;598151;237;66613;-60
2023/05/23 05:43:55;;;;;;;;;;;;;;;19.35;65.51;96822.96;598142;237;64983;-60
2023/05/23 05:46:23;;;;;;;;;;;;;;;19.34;65.49;96822.14;598149;237;68843;-60
2023/05/23 05:48:50;;;;;;;;;;;;;;;19.35;65.57;96830.95;598084;237;66201;-60
2023/05/23 05:51:18;;;;;;;;;;;;;;;19.36;65.50;96827.22;598007;237;65676;-61
2023/05/23 05:53:48;;;;;;;;;;;;;;;19.35;65.53;96830.95;597322;237;68612;-62
2023/05/23 05:56:18;;;;;;;;;;;;;;;19.36;65.55;96832.55;601090;234;69619;-65
2023/05/23 05:58:45;;;;;;;;;;;;;;;19.34;65.58;96824.80;602906;235;63040;-62
2023/05/23 06:01:15;;;;;;;;;;;;;;;19.34;65.49;96830.13;602778;235;46686;-62
2023/05/23 06:03:43;;;;;;;;;;;;;;;19.38;65.70;96827.77;602782;235;66423;-61
2023/05/23 06:06:10;;;;;;;;;;;;;;;19.37;65.57;96824.30;602954;235;65064;-61
2023/05/23 06:08:38;;;;;;;;;;;;;;;19.36;65.06;96828.02;599785;235;67320;-60
2023/05/23 06:11:08;;;;;;;;;;;;;;;19.32;64.71;96828.83;598730;236;48480;-63
2023/05/23 06:13:35;;;;;;;;;;;;;;;19.33;65.58;96830.41;598925;237;64853;-62
2023/05/23 06:16:03;;;;;;;;;;;;;;;19.33;65.49;96833.08;598951;237;66226;-62
2023/05/23 06:18:30;;;;;;;;;;;;;;;19.34;65.39;96832.00;598960;237;66754;-62
2023/05/23 06:20:58;;;;;;;;;;;;;;;19.35;65.17;96830.95;600482;236;65046;-66
2023/05/23 06:23:26;;;;;;;;;;;;;;;19.35;65.54;96826.42;601498;236;69406;-65
2023/05/23 06:25:54;;;;;;;;;;;;;;;19.35;65.64;96820.30;601541;236;68465;-65
2023/05/23 06:28:21;;;;;;;;;;;;;;;19.35;65.75;96821.09;601484;236;62679;-62
2023/05/23 06:30:49;;;;;;;;;;;;;;;19.36;65.84;96827.22;601509;236;68616;-63
2023/05/23 06:33:16;;;;;;;;;;;;;;;19.36;65.78;96828.02;601518;236;68613;-62
2023/05/23 06:35:44;;;;;;;;;;;;;;;19.36;65.79;96821.89;601574;236;64896;-63
2023/05/23 06:38:11;;;;;;;;;;;;;;;19.37;65.77;96823.47;601553;236;68486;-62
2023/05/23 06:40:40;;;;;;;;;;;;;;;19.36;65.79;96825.34;601533;236;67361;-60
2023/05/23 06:43:09;;;;;;;;;;;;;;;19.36;65.71;96827.22;601447;236;62480;-62
2023/05/23 06:45:47;;;;;;;;;;;;;;;19.37;65.72;96829.63;601437;235;47616;-60
2023/05/23 06:48:14;;;;;;;;;;;;;;;19.37;65.87;96828.80;601581;236;68621;-61
2023/05/23 06:50:42;;;;;;;;;;;;;;;19.38;65.87;96838.42;601505;236;63023;-60
2023/05/23 06:53:11;;;;;;;;;;;;;;;19.37;65.82;96826.14;597987;236;69452;-65
2023/05/23 06:55:40;;;;;;;;;;;;;;;19.38;65.86;96825.09;601270;236;67372;-68
2023/05/23 06:58:08;;;;;;;;;;;;;;;19.38;65.47;96825.89;601245;236;63819;-64
2023/05/23 07:00:37;;;;;;;;;;;;;;;19.38;65.77;96825.89;601331;236;68790;-64
2023/05/23 07:03:09;;;;;;;;;;;;;;;19.38;65.63;96825.89;601278;235;46148;-62
2023/05/23 07:05:36;;;;;;;;;;;;;;;19.40;65.74;96830.97;601031;236;63714;-63
2023/05/23 07:08:05;;;;;;;;;;;;;;;19.39;65.79;96829.34;600287;236;66511;-63
2023/05/23 07:10:34;;;;;;;;;;;;;;;19.39;65.73;96832.02;601353;236;66431;-64
2023/05/23 07:13:03;;;;;;;;;;;;;;;19.40;65.55;96828.30;601312;235;43648;-64
2023/05/23 07:15:31;;;;;;;;;;;;;;;19.40;65.73;96828.30;601472;236;67409;-63
2023/05/23 07:18:00;;;;;;;;;;;;;;;19.40;65.87;96825.64;598656;235;50146;-63
2023/05/23 07:20:28;;;;;;;;;;;;;;;19.41;65.80;96824.56;595900;235;62739;-64
2023/05/23 07:22:57;;;;;;;;;;;;;;;19.40;65.80;96818.44;600244;236;45806;-63
2023/05/23 07:25:25;;;;;;;;;;;;;;;19.40;65.76;96815.77;600303;236;68460;-64
2023/05/23 07:27:53;;;;;;;;;;;;;;;19.40;65.70;96813.11;600448;236;65805;-64
2023/05/23 07:30:21;;;;;;;;;;;;;;;19.40;65.68;96809.65;600402;236;69347;-65
2023/05/23 07:32:51;;;;;;;;;;;;;;;19.40;65.66;96817.64;600181;236;69519;-70
2023/05/23 07:35:22;;;;;;;;;;;;;;;19.41;65.57;96824.56;600329;236;64756;-67
2023/05/23 07:37:48;;;;;;;;;;;;;;;19.42;65.39;96810.16;600300;236;66876;-64
2023/05/23 07:40:15;;;;;;;;;;;;;;;19.41;65.35;96814.70;600304;236;69034;-63
2023/05/23 07:42:43;;;;;;;;;;;;;;;19.43;65.60;96811.78;600432;236;62628;-69
2023/05/23 07:45:11;;;;;;;;;;;;;;;19.44;65.31;96803.50;600431;236;68850;-63
2023/05/23 07:47:39;;;;;;;;;;;;;;;19.43;65.29;96809.91;595494;236;70089;-64
2023/05/23 07:50:08;;;;;;;;;;;;;;;19.43;65.25;96806.45;600368;236;62774;-64
2023/05/23 07:52:35;;;;;;;;;;;;;;;19.42;65.08;96810.95;600309;236;66370;-64
2023/05/23 08:05:10;;;;;;;;;;;;;;;19.41;65.02;96804.04;600170;236;44416;-62
2023/05/23 08:14:21;;;;;;;;;;;;;;;19.40;65.10;96799.78;600124;236;40421;-63
2023/05/23 08:20:29;;;;;;;;;;;;;;;19.39;65.00;96794.70;599844;236;44835;-66
2023/05/23 08:22:57;;;;;;;;;;;;;;;19.41;64.72;96797.91;599378;236;68783;-64
2023/05/23 08:25:25;;;;;;;;;;;;;;;19.42;64.44;96796.84;599707;236;65644;-64
2023/05/23 08:27:52;;;;;;;;;;;;;;;19.41;64.98;96787.25;599778;236;66731;-65
2023/05/23 08:30:28;;;;;;;;;;;;;;;19.40;64.33;96794.45;598537;236;50763;-64
2023/05/23 08:32:56;;;;;;;;;;;;;;;19.42;64.19;96791.51;599826;236;63145;-64
2023/05/23 08:35:24;;;;;;;;;;;;;;;19.42;64.00;96788.84;599539;236;66859;-64
2023/05/23 08:37:52;;;;;;;;;;;;;;;19.45;65.33;96789.12;599787;236;68497;-64
2023/05/23 08:40:21;;;;;;;;;;;;;;;19.45;65.31;96783.80;599803;236;65474;-65
2023/05/23 08:42:50;;;;;;;;;;;;;;;19.47;65.26;96778.98;599375;236;47524;-62
2023/05/23 08:45:18;;;;;;;;;;;;;;;19.48;64.96;96777.94;599384;236;68472;-61
2023/05/23 08:47:48;;;;;;;;;;;;;;;19.49;65.07;96779.52;599528;236;45218;-62
2023/05/23 08:50:18;;;;;;;;;;;;;;;19.51;65.10;96780.06;600011;234;49363;-62
2023/05/23 08:52:50;;;;;;;;;;;;;;;19.52;64.99;96781.65;599773;236;69150;-63
2023/05/23 08:55:18;;;;;;;;;;;;;;;19.54;64.95;96781.39;599439;236;66225;-63
2023/05/23 08:57:46;;;;;;;;;;;;;;;19.55;64.78;96788.31;599724;236;69392;-64
2023/05/23 09:00:21;;;;;;;;;;;;;;;19.57;64.95;96777.41;599279;236;47320;-65
2023/05/23 09:02:49;;;;;;;;;;;;;;;19.59;64.90;96786.73;599773;235;64867;-64
2023/05/23 09:05:18;;;;;;;;;;;;;;;19.61;64.97;96781.91;599325;236;45969;-64
2023/05/23 09:07:53;;;;;;;;;;;;;;;19.64;64.91;96789.40;599593;236;69039;-63
2023/05/23 09:10:21;;;;;;;;;;;;;;;19.66;64.96;96784.61;599613;236;65138;-64
2023/05/23 09:12:49;;;;;;;;;;;;;;;19.66;64.67;96784.61;599613;236;66005;-63
2023/05/23 09:15:17;;;;;;;;;;;;;;;19.69;64.84;96784.07;599612;236;69304;-64
2023/05/23 09:17:45;;;;;;;;;;;;;;;19.71;64.84;96776.61;599734;236;65973;-64
2023/05/23 09:20:14;;;;;;;;;;;;;;;19.72;64.86;96772.90;599833;236;66636;-64
2023/05/23 09:22:45;;;;;;;;;;;;;;;19.73;64.81;96777.16;599641;236;45671;-64
2023/05/23 09:25:14;;;;;;;;;;;;;;;19.74;64.87;96783.27;599710;236;67547;-64
2023/05/23 09:27:42;;;;;;;;;;;;;;;19.75;64.65;96771.53;594448;236;65895;-63
2023/05/23 09:30:11;;;;;;;;;;;;;;;19.76;64.83;96777.69;599537;236;67159;-62
2023/05/23 09:32:39;;;;;;;;;;;;;;;19.77;65.04;96768.61;599838;236;65022;-63
2023/05/23 09:35:11;;;;;;;;;;;;;;;19.77;64.94;96769.41;599750;236;68925;-62
2023/05/23 09:37:38;;;;;;;;;;;;;;;19.78;64.82;96768.36;599739;236;68648;-63
2023/05/23 09:40:09;;;;;;;;;;;;;;;19.79;64.62;96771.81;599002;236;63030;-63
2023/05/23 09:42:38;;;;;;;;;;;;;;;19.80;64.55;96770.73;599478;236;68781;-63
2023/05/23 09:45:06;;;;;;;;;;;;;;;19.81;64.57;96764.36;599660;234;66178;-64
2023/05/23 09:47:34;;;;;;;;;;;;;;;19.82;64.72;96763.27;599554;236;65076;-63
2023/05/23 09:50:02;;;;;;;;;;;;;;;19.81;64.50;96773.15;599548;236;68789;-63
2023/05/23 09:52:38;;;;;;;;;;;;;;;19.81;64.56;96767.81;599603;236;49967;-63
2023/05/23 09:55:05;;;;;;;;;;;;;;;19.81;64.58;96770.48;599700;236;62929;-63
2023/05/23 09:57:38;;;;;;;;;;;;;;;19.82;64.67;96773.94;599104;236;68775;-63
2023/05/23 10:00:09;;;;;;;;;;;;;;;19.82;64.57;96769.41;599538;236;66393;-62
2023/05/23 10:02:57;;;;;;;;;;;;;;;19.83;64.53;96770.20;599703;236;45137;-62
2023/05/23 10:05:42;;;;;;;;;;;;;;;19.82;64.71;96766.73;599653;236;68752;-64
2023/05/23 10:08:14;;;;;;;;;;;;;;;19.83;64.56;96756.86;599228;236;68887;-63
2023/05/23 10:10:52;;;;;;;;;;;;;;;19.83;64.58;96767.53;599427;236;63017;-63
2023/05/23 10:13:20;;;;;;;;;;;;;;;19.83;64.46;96765.66;599029;236;66683;-63
2023/05/23 10:15:49;;;;;;;;;;;;;;;19.84;64.31;96769.15;599434;236;68682;-63
2023/05/23 10:18:18;;;;;;;;;;;;;;;19.83;64.43;96770.20;598635;236;67777;-63
2023/05/23 10:20:47;;;;;;;;;;;;;;;19.83;66.16;96770.20;599655;236;68836;-63
2023/05/23 10:23:16;;;;;;;;;;;;;;;19.81;65.13;96769.69;590307;236;68773;-65
2023/05/23 10:25:44;;;;;;;;;;;;;;;19.81;65.55;96773.15;590397;237;65145;-62
2023/05/23 10:28:13;;;;;;;;;;;;;;;19.81;65.12;96775.02;598017;237;68476;-64
2023/05/23 10:30:40;;;;;;;;;;;;;;;19.81;65.03;96767.02;597999;237;66553;-63
2023/05/23 10:33:09;;;;;;;;;;;;;;;19.82;65.32;96765.94;598092;237;63849;-63
2023/05/23 10:35:43;;;;;;;;;;;;;;;19.83;64.82;96765.66;598032;237;66810;-63
2023/05/23 10:38:18;;;;;;;;;;;;;;;19.85;65.10;96770.73;597971;234;68707;-63
2023/05/23 10:40:54;;;;;;;;;;;;;;;19.84;64.87;96769.15;597598;237;65163;-63
2023/05/23 10:43:28;;;;;;;;;;;;;;;19.84;64.89;96764.61;597981;237;68728;-64
2023/05/23 10:45:56;;;;;;;;;;;;;;;19.84;64.82;96759.27;597900;237;68704;-64
2023/05/23 10:48:25;;;;;;;;;;;;;;;19.84;64.73;96753.94;598078;237;63830;-64
2023/05/23 10:51:06;;;;;;;;;;;;;;;19.85;64.72;96760.07;597613;237;68849;-64
2023/05/23 10:53:38;;;;;;;;;;;;;;;19.85;64.63;96752.86;597897;237;68766;-62
2023/05/23 10:56:09;;;;;;;;;;;;;;;19.86;64.87;96772.32;598033;237;62960;-63
2023/05/23 10:58:38;;;;;;;;;;;;;;;19.86;64.87;96772.32;598014;237;68770;-63
2023/05/23 11:01:07;;;;;;;;;;;;;;;19.85;64.89;96776.06;598028;237;66629;-62
2023/05/23 11:03:48;;;;;;;;;;;;;;;19.85;65.02;96776.06;598076;237;62995;-62
2023/05/23 11:06:34;;;;;;;;;;;;;;;19.86;65.07;96772.32;598001;237;68846;-63
2023/05/23 11:09:06;;;;;;;;;;;;;;;19.85;64.84;96770.73;598038;237;68632;-64
2023/05/23 11:11:53;;;;;;;;;;;;;;;19.85;64.87;96771.53;598002;237;63876;-64
2023/05/23 11:14:22;;;;;;;;;;;;;;;19.85;64.85;96770.73;597954;237;66685;-64
2023/05/23 11:16:49;;;;;;;;;;;;;;;19.85;64.87;96773.41;597665;237;66361;-69
2023/05/23 11:19:24;;;;;;;;;;;;;;;19.86;65.04;96777.66;598017;237;63564;-64
2023/05/23 11:21:54;;;;;;;;;;;;;;;19.86;65.01;96778.48;598815;236;68817;-62
2023/05/23 11:24:22;;;;;;;;;;;;;;;19.86;64.87;96782.98;599724;236;69225;-62
2023/05/23 11:26:58;;;;;;;;;;;;;;;19.86;65.11;96786.48;599751;236;65192;-62
2023/05/23 11:29:29;;;;;;;;;;;;;;;19.86;65.10;96783.81;599764;236;68871;-63
2023/05/23 11:31:57;;;;;;;;;;;;;;;19.86;65.10;96783.81;599840;236;68693;-69
2023/05/23 11:34:27;;;;;;;;;;;;;;;19.86;65.35;96789.14;599837;236;63046;-69
2023/05/23 11:36:55;;;;;;;;;;;;;;;19.87;65.46;96784.61;599785;236;66736;-70
2023/05/23 11:39:23;;;;;;;;;;;;;;;19.88;65.63;96780.86;599806;236;68674;-69
2023/05/23 11:41:52;;;;;;;;;;;;;;;19.87;65.21;96777.41;599761;236;65015;-63
2023/05/23 11:44:19;;;;;;;;;;;;;;;19.87;65.36;96772.06;599566;236;68567;-63
2023/05/23 11:46:48;;;;;;;;;;;;;;;19.87;65.26;96761.40;599842;236;68660;-63
2023/05/23 11:49:15;;;;;;;;;;;;;;;19.88;65.47;96759.52;599327;236;62943;-63
2023/05/23 11:51:43;;;;;;;;;;;;;;;19.87;65.11;96764.06;599733;236;69042;-63
2023/05/23 11:54:10;;;;;;;;;;;;;;;19.89;65.05;96759.27;599740;236;68613;-63
2023/05/23 11:56:41;;;;;;;;;;;;;;;19.88;65.20;96754.98;599726;236;62903;-63
2023/05/23 11:59:09;;;;;;;;;;;;;;;19.89;65.43;96753.14;599815;236;68927;-63
2023/05/23 12:01:37;;;;;;;;;;;;;;;19.89;65.18;96750.47;599794;236;68622;-63
2023/05/23 12:04:06;;;;;;;;;;;;;;;19.88;65.34;96749.66;599747;236;62924;-63
2023/05/23 12:06:33;;;;;;;;;;;;;;;19.88;65.29;96744.31;599729;236;68828;-61
2023/05/23 12:09:01;;;;;;;;;;;;;;;19.90;65.19;96742.19;599822;236;68684;-61
2023/05/23 12:11:30;;;;;;;;;;;;;;;19.89;65.19;96739.81;599739;236;65063;-61
2023/05/23 12:14:00;;;;;;;;;;;;;;;19.89;65.23;96740.60;599827;236;68627;-61
2023/05/23 12:16:28;;;;;;;;;;;;;;;19.89;65.31;96729.94;599747;236;69423;-61
2023/05/23 12:18:57;;;;;;;;;;;;;;;19.89;65.31;96727.27;599677;236;62794;-61
2023/05/23 12:21:30;;;;;;;;;;;;;;;19.90;65.21;96726.19;599212;236;68730;-61
2023/05/23 12:23:58;;;;;;;;;;;;;;;19.89;65.54;96727.27;597472;237;68667;-61
2023/05/23 12:26:25;;;;;;;;;;;;;;;19.91;65.50;96721.64;598021;237;64969;-61
2023/05/23 12:28:53;;;;;;;;;;;;;;;19.89;65.43;96713.94;598035;237;68782;-61
2023/05/23 12:31:23;;;;;;;;;;;;;;;19.90;65.69;96709.39;598005;237;66594;-61
2023/05/23 12:33:52;;;;;;;;;;;;;;;19.89;65.87;96700.59;597996;237;65063;-60
2023/05/23 12:36:24;;;;;;;;;;;;;;;19.90;65.73;96693.39;597970;237;66565;-61
2023/05/23 12:38:52;;;;;;;;;;;;;;;19.91;65.47;96694.98;597190;237;69124;-61
2023/05/23 12:41:20;;;;;;;;;;;;;;;19.89;65.52;96694.47;598087;237;65024;-61
2023/05/23 12:43:55;;;;;;;;;;;;;;;19.90;65.27;96688.84;598010;237;68842;-61
2023/05/23 12:46:23;;;;;;;;;;;;;;;19.90;65.74;96688.05;598005;237;66568;-62
2023/05/23 12:48:51;;;;;;;;;;;;;;;19.90;65.25;96682.72;598067;237;62925;-61
2023/05/23 12:51:19;;;;;;;;;;;;;;;19.90;65.46;96683.52;598080;237;66393;-61
2023/05/23 12:53:47;;;;;;;;;;;;;;;19.91;65.68;96686.97;590371;237;68522;-61
2023/05/23 12:56:14;;;;;;;;;;;;;;;19.91;65.75;96678.98;598017;237;65051;-61
2023/05/23 12:58:42;;;;;;;;;;;;;;;19.91;65.51;96670.97;598078;237;68210;-61
2023/05/23 13:01:10;;;;;;;;;;;;;;;19.91;65.81;96668.31;597960;237;66697;-61
2023/05/23 13:03:37;;;;;;;;;;;;;;;19.90;65.70;96669.39;597979;237;63122;-61
2023/05/23 13:06:05;;;;;;;;;;;;;;;19.90;65.71;96670.19;598058;237;66901;-61
2023/05/23 13:08:33;;;;;;;;;;;;;;;19.91;65.94;96660.30;598025;235;66724;-63
2023/05/23 13:11:00;;;;;;;;;;;;;;;19.92;65.80;96661.92;598060;237;64880;-63
2023/05/23 13:13:28;;;;;;;;;;;;;;;19.92;65.83;96656.59;598044;237;68748;-63
2023/05/23 13:15:56;;;;;;;;;;;;;;;19.91;66.15;96652.30;597979;237;66690;-63
2023/05/23 13:18:23;;;;;;;;;;;;;;;19.91;66.21;96647.77;598094;237;63012;-63